Portada
METAR-TAF:

METAR-TAF

Aeroports :

Millinocket Municipal Airport

Millinocket, Maine, Estats Units d'Amèrica

latitud: 45-38-52N, longitud: 068-41-31W, altitud: 124 m

Observació

L'informe es va fer fa 31 minuts, a les 09:53 UTC
Vent calma
Temperatura -5°C
Humitat 86%
Pressió 1004 hPa
Visibilitat: 16.1 km
Cel cobert a una alçada de 7000 ft

METAR: KMLT 080953Z AUTO 00000KT 10SM OVC070 M05/M07 A2966 RMK AO2 SLP052 T10501072

Hora: 06:24 (10:24 UTC)


TAF: manca

Observacions i pronòstics meteorològics de més de 4000 aeroports (METAR i TAF).

Les estacions disponibles són els punts grocs i vermells al mapa.

Posi el ratolí al punt desitjat per veure el nom de l'estació.

Feu clic per veure les observacions i els pronòstics meteorològics.

Per canviar el mapa: feu clic els botons verds amb una creu de color negre per apropar; al botó verd amb un guió per allunyar la imatge; o en les fletxes verdes per a mapes adjacents.


METAR-TAF: